sensor_id;sensor_type;location;lat;lon;timestamp;temperature;humidity
36002;DHT22;22070;50.922;5.430;2022-10-31T16:25:28;17.00;99.90
36002;DHT22;22070;50.922;5.430;2022-10-31T16:27:58;16.80;99.90
36002;DHT22;22070;50.922;5.430;2022-10-31T16:30:40;16.80;99.90
36002;DHT22;22070;50.922;5.430;2022-10-31T16:35:47;17.10;99.90
36002;DHT22;22070;50.922;5.430;2022-10-31T16:38:13;17.20;99.90
36002;DHT22;22070;50.922;5.430;2022-10-31T16:40:39;17.30;99.90
36002;DHT22;22070;50.922;5.430;2022-10-31T16:43:08;17.40;99.90
36002;DHT22;22070;50.922;5.430;2022-10-31T16:45:34;17.50;99.90
36002;DHT22;22070;50.922;5.430;2022-10-31T16:48:05;17.50;99.90
36002;DHT22;22070;50.922;5.430;2022-10-31T16:50:31;17.60;99.90
36002;DHT22;22070;50.922;5.430;2022-10-31T16:52:57;17.50;99.90
36002;DHT22;22070;50.922;5.430;2022-10-31T16:55:23;17.60;99.90
36002;DHT22;22070;50.922;5.430;2022-10-31T16:57:51;17.50;99.90
36002;DHT22;22070;50.922;5.430;2022-10-31T17:00:25;17.50;99.90
36002;DHT22;22070;50.922;5.430;2022-10-31T17:02:53;17.50;99.90
36002;DHT22;22070;50.922;5.430;2022-10-31T17:05:20;17.50;99.90
36002;DHT22;22070;50.922;5.430;2022-10-31T17:07:47;17.50;99.90
36002;DHT22;22070;50.922;5.430;2022-10-31T17:10:13;17.50;99.90
36002;DHT22;22070;50.922;5.430;2022-10-31T17:12:40;17.50;99.90
36002;DHT22;22070;50.922;5.430;2022-10-31T17:15:14;17.40;99.90
36002;DHT22;22070;50.922;5.430;2022-10-31T17:17:40;17.30;99.90
36002;DHT22;22070;50.922;5.430;2022-10-31T17:20:32;17.30;99.90
36002;DHT22;22070;50.922;5.430;2022-10-31T17:22:58;17.30;99.90
36002;DHT22;22070;50.922;5.430;2022-10-31T17:25:26;17.10;99.90
36002;DHT22;22070;50.922;5.430;2022-10-31T17:27:52;17.10;99.90
36002;DHT22;22070;50.922;5.430;2022-10-31T17:30:19;17.00;99.90
36002;DHT22;22070;50.922;5.430;2022-10-31T17:32:46;16.90;99.90
36002;DHT22;22070;50.922;5.430;2022-10-31T17:35:13;16.80;99.90
36002;DHT22;22070;50.922;5.430;2022-10-31T17:37:39;16.80;99.90
36002;DHT22;22070;50.922;5.430;2022-10-31T17:40:10;16.70;99.90
36002;DHT22;22070;50.922;5.430;2022-10-31T17:42:36;16.70;99.90
36002;DHT22;22070;50.922;5.430;2022-10-31T17:45:03;16.60;99.90
36002;DHT22;22070;50.922;5.430;2022-10-31T17:47:29;16.50;99.90
36002;DHT22;22070;50.922;5.430;2022-10-31T17:49:54;16.50;99.90
36002;DHT22;22070;50.922;5.430;2022-10-31T17:52:20;16.40;99.90
36002;DHT22;22070;50.922;5.430;2022-10-31T17:54:46;16.40;99.90
36002;DHT22;22070;50.922;5.430;2022-10-31T17:57:11;16.30;99.90
36002;DHT22;22070;50.922;5.430;2022-10-31T17:59:37;16.30;99.90
36002;DHT22;22070;50.922;5.430;2022-10-31T18:02:03;16.20;99.90
36002;DHT22;22070;50.922;5.430;2022-10-31T18:04:34;16.20;99.90
36002;DHT22;22070;50.922;5.430;2022-10-31T18:06:59;16.10;99.90
36002;DHT22;22070;50.922;5.430;2022-10-31T18:09:25;16.20;99.90
36002;DHT22;22070;50.922;5.430;2022-10-31T18:11:51;16.10;99.90
36002;DHT22;22070;50.922;5.430;2022-10-31T18:14:16;16.00;99.90
36002;DHT22;22070;50.922;5.430;2022-10-31T18:16:42;16.00;99.90
36002;DHT22;22070;50.922;5.430;2022-10-31T18:19:11;16.00;99.90
36002;DHT22;22070;50.922;5.430;2022-10-31T18:21:37;16.00;99.90
36002;DHT22;22070;50.922;5.430;2022-10-31T18:24:03;15.90;99.90
36002;DHT22;22070;50.922;5.430;2022-10-31T18:26:29;15.80;99.90
36002;DHT22;22070;50.922;5.430;2022-10-31T18:28:55;15.80;99.90
36002;DHT22;22070;50.922;5.430;2022-10-31T18:31:21;15.80;99.90
36002;DHT22;22070;50.922;5.430;2022-10-31T18:33:46;15.80;99.90
36002;DHT22;22070;50.922;5.430;2022-10-31T18:36:12;15.70;99.90
36002;DHT22;22070;50.922;5.430;2022-10-31T18:38:40;15.70;99.90
36002;DHT22;22070;50.922;5.430;2022-10-31T18:41:07;15.70;99.90
36002;DHT22;22070;50.922;5.430;2022-10-31T18:43:33;15.70;99.90
36002;DHT22;22070;50.922;5.430;2022-10-31T18:46:03;15.60;99.90
36002;DHT22;22070;50.922;5.430;2022-10-31T18:48:29;15.60;99.90
36002;DHT22;22070;50.922;5.430;2022-10-31T18:50:56;15.60;99.90
36002;DHT22;22070;50.922;5.430;2022-10-31T18:53:22;15.50;99.90
36002;DHT22;22070;50.922;5.430;2022-10-31T18:55:48;15.50;99.90
36002;DHT22;22070;50.922;5.430;2022-10-31T18:58:14;15.40;99.90
36002;DHT22;22070;50.922;5.430;2022-10-31T19:00:39;15.40;99.90
36002;DHT22;22070;50.922;5.430;2022-10-31T19:03:05;15.40;99.90
36002;DHT22;22070;50.922;5.430;2022-10-31T19:05:31;15.40;99.90
36002;DHT22;22070;50.922;5.430;2022-10-31T19:07:57;15.40;99.90
36002;DHT22;22070;50.922;5.430;2022-10-31T19:10:22;15.30;99.90
36002;DHT22;22070;50.922;5.430;2022-10-31T19:12:48;15.30;99.90
36002;DHT22;22070;50.922;5.430;2022-10-31T19:15:14;15.20;99.90
36002;DHT22;22070;50.922;5.430;2022-10-31T19:17:39;15.20;99.90
36002;DHT22;22070;50.922;5.430;2022-10-31T19:20:06;15.20;99.90
36002;DHT22;22070;50.922;5.430;2022-10-31T19:22:32;15.10;99.90
36002;DHT22;22070;50.922;5.430;2022-10-31T19:24:57;15.00;99.90
36002;DHT22;22070;50.922;5.430;2022-10-31T19:27:23;15.00;99.90
36002;DHT22;22070;50.922;5.430;2022-10-31T19:29:51;15.00;99.90
36002;DHT22;22070;50.922;5.430;2022-10-31T19:32:17;15.00;99.90
36002;DHT22;22070;50.922;5.430;2022-10-31T19:34:43;14.90;99.90
36002;DHT22;22070;50.922;5.430;2022-10-31T19:37:09;14.80;99.90
36002;DHT22;22070;50.922;5.430;2022-10-31T19:39:35;14.80;99.90
36002;DHT22;22070;50.922;5.430;2022-10-31T19:42:01;14.80;99.90
36002;DHT22;22070;50.922;5.430;2022-10-31T19:44:26;14.80;99.90
36002;DHT22;22070;50.922;5.430;2022-10-31T19:46:56;14.80;99.90
36002;DHT22;22070;50.922;5.430;2022-10-31T19:49:22;14.80;99.90
36002;DHT22;22070;50.922;5.430;2022-10-31T19:51:48;14.70;99.90
36002;DHT22;22070;50.922;5.430;2022-10-31T19:54:14;14.70;99.90
36002;DHT22;22070;50.922;5.430;2022-10-31T19:56:39;14.70;99.90
36002;DHT22;22070;50.922;5.430;2022-10-31T19:59:05;14.70;99.90
36002;DHT22;22070;50.922;5.430;2022-10-31T20:01:31;14.70;99.90
36002;DHT22;22070;50.922;5.430;2022-10-31T20:03:56;14.60;99.90
36002;DHT22;22070;50.922;5.430;2022-10-31T20:06:28;14.70;99.90
36002;DHT22;22070;50.922;5.430;2022-10-31T20:08:55;14.70;99.90
36002;DHT22;22070;50.922;5.430;2022-10-31T20:11:22;14.70;99.90
36002;DHT22;22070;50.922;5.430;2022-10-31T20:13:47;14.80;99.90
36002;DHT22;22070;50.922;5.430;2022-10-31T20:16:14;14.90;99.90
36002;DHT22;22070;50.922;5.430;2022-10-31T20:18:41;14.80;99.90
36002;DHT22;22070;50.922;5.430;2022-10-31T20:21:08;14.90;99.90
36002;DHT22;22070;50.922;5.430;2022-10-31T20:23:35;14.90;99.90
36002;DHT22;22070;50.922;5.430;2022-10-31T20:26:01;14.90;99.90
36002;DHT22;22070;50.922;5.430;2022-10-31T20:28:29;15.00;99.90
36002;DHT22;22070;50.922;5.430;2022-10-31T20:30:55;15.00;99.90
36002;DHT22;22070;50.922;5.430;2022-10-31T20:33:21;15.10;99.90
36002;DHT22;22070;50.922;5.430;2022-10-31T20:35:47;15.20;99.90
36002;DHT22;22070;50.922;5.430;2022-10-31T20:38:12;15.20;99.90
36002;DHT22;22070;50.922;5.430;2022-10-31T20:40:38;15.30;99.90
36002;DHT22;22070;50.922;5.430;2022-10-31T20:43:04;15.30;99.90
36002;DHT22;22070;50.922;5.430;2022-10-31T20:45:30;15.40;99.90
36002;DHT22;22070;50.922;5.430;2022-10-31T20:47:56;15.50;99.90
36002;DHT22;22070;50.922;5.430;2022-10-31T20:50:23;15.60;99.90
36002;DHT22;22070;50.922;5.430;2022-10-31T20:52:49;15.70;99.90
36002;DHT22;22070;50.922;5.430;2022-10-31T20:55:15;15.70;99.90
36002;DHT22;22070;50.922;5.430;2022-10-31T20:57:41;15.80;99.90
36002;DHT22;22070;50.922;5.430;2022-10-31T21:00:08;15.90;99.90
36002;DHT22;22070;50.922;5.430;2022-10-31T21:02:37;16.00;99.90
36002;DHT22;22070;50.922;5.430;2022-10-31T21:05:03;16.10;99.90
36002;DHT22;22070;50.922;5.430;2022-10-31T21:07:32;16.20;99.90
36002;DHT22;22070;50.922;5.430;2022-10-31T21:09:58;16.20;99.90
36002;DHT22;22070;50.922;5.430;2022-10-31T21:12:23;16.30;99.90
36002;DHT22;22070;50.922;5.430;2022-10-31T21:14:49;16.40;99.90
36002;DHT22;22070;50.922;5.430;2022-10-31T21:17:15;16.60;99.90
36002;DHT22;22070;50.922;5.430;2022-10-31T21:19:40;16.60;99.90
36002;DHT22;22070;50.922;5.430;2022-10-31T21:22:06;16.70;99.90
36002;DHT22;22070;50.922;5.430;2022-10-31T21:24:31;16.70;99.90
36002;DHT22;22070;50.922;5.430;2022-10-31T21:26:57;16.80;99.90
36002;DHT22;22070;50.922;5.430;2022-10-31T21:29:23;16.80;99.90
36002;DHT22;22070;50.922;5.430;2022-10-31T21:31:49;16.80;99.90
36002;DHT22;22070;50.922;5.430;2022-10-31T21:34:15;17.00;99.90
36002;DHT22;22070;50.922;5.430;2022-10-31T21:36:40;17.10;99.90
36002;DHT22;22070;50.922;5.430;2022-10-31T21:39:07;17.10;99.90
36002;DHT22;22070;50.922;5.430;2022-10-31T21:41:34;17.10;99.90
36002;DHT22;22070;50.922;5.430;2022-10-31T21:44:00;17.20;99.90
36002;DHT22;22070;50.922;5.430;2022-10-31T21:46:28;17.20;99.90
36002;DHT22;22070;50.922;5.430;2022-10-31T21:48:54;17.20;99.90
36002;DHT22;22070;50.922;5.430;2022-10-31T21:51:23;17.30;99.90
36002;DHT22;22070;50.922;5.430;2022-10-31T21:53:49;17.40;99.90
36002;DHT22;22070;50.922;5.430;2022-10-31T21:56:34;17.40;99.90
36002;DHT22;22070;50.922;5.430;2022-10-31T21:59:00;17.50;99.90
36002;DHT22;22070;50.922;5.430;2022-10-31T22:01:27;17.50;99.90
36002;DHT22;22070;50.922;5.430;2022-10-31T22:03:53;17.50;99.90
36002;DHT22;22070;50.922;5.430;2022-10-31T22:06:20;17.60;99.90
36002;DHT22;22070;50.922;5.430;2022-10-31T22:08:45;17.50;99.90
36002;DHT22;22070;50.922;5.430;2022-10-31T22:11:16;17.60;99.90
36002;DHT22;22070;50.922;5.430;2022-10-31T22:13:44;17.60;99.90
36002;DHT22;22070;50.922;5.430;2022-10-31T22:16:12;17.60;99.90
36002;DHT22;22070;50.922;5.430;2022-10-31T22:18:39;17.60;99.90
36002;DHT22;22070;50.922;5.430;2022-10-31T22:21:10;17.70;99.90
36002;DHT22;22070;50.922;5.430;2022-10-31T22:23:36;17.80;99.90
36002;DHT22;22070;50.922;5.430;2022-10-31T22:28:29;17.80;99.90
36002;DHT22;22070;50.922;5.430;2022-10-31T22:30:55;17.80;99.90
36002;DHT22;22070;50.922;5.430;2022-10-31T22:33:21;17.80;99.90
36002;DHT22;22070;50.922;5.430;2022-10-31T22:35:46;17.80;99.90
36002;DHT22;22070;50.922;5.430;2022-10-31T22:38:12;17.90;99.90
36002;DHT22;22070;50.922;5.430;2022-10-31T22:40:37;18.00;99.90
36002;DHT22;22070;50.922;5.430;2022-10-31T22:43:03;18.00;99.90
36002;DHT22;22070;50.922;5.430;2022-10-31T22:45:29;18.00;99.90
36002;DHT22;22070;50.922;5.430;2022-10-31T22:47:54;18.00;99.90
36002;DHT22;22070;50.922;5.430;2022-10-31T22:50:20;18.00;99.90
36002;DHT22;22070;50.922;5.430;2022-10-31T22:52:45;18.10;99.90
36002;DHT22;22070;50.922;5.430;2022-10-31T22:55:11;18.10;99.90
36002;DHT22;22070;50.922;5.430;2022-10-31T22:57:39;18.10;99.90
36002;DHT22;22070;50.922;5.430;2022-10-31T23:00:06;18.10;99.90
36002;DHT22;22070;50.922;5.430;2022-10-31T23:02:33;18.10;99.90
36002;DHT22;22070;50.922;5.430;2022-10-31T23:04:58;18.00;99.90
36002;DHT22;22070;50.922;5.430;2022-10-31T23:07:24;18.00;99.90
36002;DHT22;22070;50.922;5.430;2022-10-31T23:09:50;18.00;99.90
36002;DHT22;22070;50.922;5.430;2022-10-31T23:12:16;18.00;99.90
36002;DHT22;22070;50.922;5.430;2022-10-31T23:15:01;18.00;99.90
36002;DHT22;22070;50.922;5.430;2022-10-31T23:17:26;18.00;99.90
36002;DHT22;22070;50.922;5.430;2022-10-31T23:19:52;18.10;99.90
36002;DHT22;22070;50.922;5.430;2022-10-31T23:22:18;18.20;99.90
36002;DHT22;22070;50.922;5.430;2022-10-31T23:24:45;18.20;99.90
36002;DHT22;22070;50.922;5.430;2022-10-31T23:27:17;18.20;99.90
36002;DHT22;22070;50.922;5.430;2022-10-31T23:32:25;18.20;99.90
36002;DHT22;22070;50.922;5.430;2022-10-31T23:34:54;18.10;99.90
36002;DHT22;22070;50.922;5.430;2022-10-31T23:37:22;18.10;99.90
36002;DHT22;22070;50.922;5.430;2022-10-31T23:39:49;18.10;99.90
36002;DHT22;22070;50.922;5.430;2022-10-31T23:42:14;18.20;99.90
36002;DHT22;22070;50.922;5.430;2022-10-31T23:44:40;18.20;99.90
36002;DHT22;22070;50.922;5.430;2022-10-31T23:47:07;18.10;99.90
36002;DHT22;22070;50.922;5.430;2022-10-31T23:49:32;18.10;99.90
36002;DHT22;22070;50.922;5.430;2022-10-31T23:51:58;18.10;99.90
36002;DHT22;22070;50.922;5.430;2022-10-31T23:54:25;18.10;99.90
36002;DHT22;22070;50.922;5.430;2022-10-31T23:56:51;18.10;99.90
36002;DHT22;22070;50.922;5.430;2022-10-31T23:59:17;18.10;99.90
